createdAt,value
2023-05-09T00:00:06.479Z,98799.31
2023-05-09T00:01:13.216Z,98790.91
2023-05-09T00:02:16.367Z,98795.28
2023-05-09T00:03:19.385Z,98788.34
2023-05-09T00:04:22.166Z,98793.09
2023-05-09T00:05:25.198Z,98790.38
2023-05-09T00:06:28.239Z,98788.38
2023-05-09T00:07:31.904Z,98799.66
2023-05-09T00:08:34.881Z,98794.00
2023-05-09T00:09:37.614Z,98799.47
2023-05-09T00:10:40.716Z,98798.22
2023-05-09T00:11:43.760Z,98802.94
2023-05-09T00:12:47.517Z,98803.31
2023-05-09T00:13:50.969Z,98799.69
2023-05-09T00:14:54.496Z,98797.66
2023-05-09T00:15:59.967Z,98793.47
2023-05-09T00:17:02.664Z,98803.50
2023-05-09T00:18:05.774Z,98809.16
2023-05-09T00:19:08.492Z,98793.66
2023-05-09T00:20:12.624Z,98793.09
2023-05-09T00:21:15.789Z,98792.00
2023-05-09T00:22:21.579Z,98793.66
2023-05-09T00:23:24.330Z,98797.47
2023-05-09T00:24:27.105Z,98806.41
2023-05-09T00:25:29.867Z,98799.47
2023-05-09T00:26:32.656Z,98812.44
2023-05-09T00:27:35.659Z,98798.94
2023-05-09T00:28:38.431Z,98790.00
2023-05-09T00:29:41.177Z,98798.22
2023-05-09T00:30:44.036Z,98795.84
2023-05-09T00:31:46.814Z,98790.53
2023-05-09T00:32:49.697Z,98801.09
2023-05-09T00:33:54.414Z,98797.28
2023-05-09T00:34:57.096Z,98797.47
2023-05-09T00:35:59.979Z,98797.28
2023-05-09T00:37:02.809Z,98800.56
2023-05-09T00:38:05.458Z,98799.47
2023-05-09T00:39:08.871Z,98796.56
2023-05-09T00:40:12.010Z,98795.47
2023-05-09T00:41:14.807Z,98795.47
2023-05-09T00:42:17.497Z,98794.72
2023-05-09T00:43:21.250Z,98792.91
2023-05-09T00:44:24.063Z,98800.00
2023-05-09T00:45:26.838Z,98791.25
2023-05-09T00:46:29.723Z,98785.78
2023-05-09T00:47:32.690Z,98796.19
2023-05-09T00:48:35.932Z,98800.91
2023-05-09T00:49:38.843Z,98796.00
2023-05-09T00:50:41.559Z,98789.75
2023-05-09T00:51:44.520Z,98797.78
2023-05-09T00:52:47.340Z,98793.44
2023-05-09T00:53:50.489Z,98796.00
2023-05-09T00:54:54.573Z,98795.78
2023-05-09T00:55:58.006Z,98797.97
2023-05-09T00:57:00.977Z,98789.94
2023-05-09T00:58:04.196Z,98792.66
2023-05-09T00:59:06.950Z,98792.84
2023-05-09T01:00:13.748Z,98794.66
2023-05-09T01:01:17.063Z,98791.22
2023-05-09T01:02:20.206Z,98811.63
2023-05-09T01:03:23.552Z,98806.66
2023-05-09T01:04:26.724Z,98805.56
2023-05-09T01:05:55.687Z,98798.13
2023-05-09T01:07:31.302Z,98800.62
2023-05-09T01:08:47.514Z,98805.72
2023-05-09T01:09:53.480Z,98797.75
2023-05-09T01:11:07.343Z,98807.94
2023-05-09T01:12:19.338Z,98794.63
2023-05-09T01:13:32.408Z,98798.63
2023-05-09T01:14:43.358Z,98795.72
2023-05-09T01:15:59.276Z,98797.56
2023-05-09T01:17:10.946Z,98800.62
2023-05-09T01:18:31.244Z,98802.81
2023-05-09T01:19:43.238Z,98806.44
2023-05-09T01:20:54.158Z,98804.44
2023-05-09T01:21:57.977Z,98806.81
2023-05-09T01:23:23.113Z,98804.97
2023-05-09T01:24:44.950Z,98803.13
2023-05-09T01:26:03.457Z,98804.19
2023-05-09T01:27:48.835Z,98798.31
2023-05-09T01:29:29.282Z,98799.22
2023-05-09T01:30:35.057Z,98803.44
2023-05-09T01:31:42.137Z,98797.59
2023-05-09T01:32:50.521Z,98795.03
2023-05-09T01:33:57.621Z,98796.50
2023-05-09T01:35:03.396Z,98800.38
2023-05-09T01:36:12.431Z,98800.00
2023-05-09T01:37:16.578Z,98803.59
2023-05-09T01:38:23.352Z,98805.19
2023-05-09T01:39:27.864Z,98803.53
2023-05-09T01:40:33.963Z,98797.16
2023-05-09T01:41:38.048Z,98800.47
2023-05-09T01:42:58.634Z,98794.63
2023-05-09T01:44:06.670Z,98794.97
2023-05-09T01:45:11.764Z,98794.91
2023-05-09T01:46:17.442Z,98794.91
2023-05-09T01:47:21.486Z,98790.56
2023-05-09T01:48:30.279Z,98792.16
2023-05-09T01:49:35.915Z,98791.03
2023-05-09T01:50:41.514Z,98789.75
2023-05-09T01:51:45.444Z,98793.03
2023-05-09T01:52:52.057Z,98782.84
2023-05-09T01:53:56.953Z,98786.84
2023-05-09T01:55:02.619Z,98791.19
2023-05-09T01:56:07.920Z,98780.03
2023-05-09T01:57:12.257Z,98789.28
2023-05-09T01:58:16.938Z,98786.16
2023-05-09T01:59:21.529Z,98777.44
2023-05-09T02:00:25.370Z,98782.50
2023-05-09T02:01:29.448Z,98781.97
2023-05-09T02:02:33.133Z,98779.75
2023-05-09T02:03:38.945Z,98775.22
2023-05-09T02:04:43.696Z,98783.00
2023-05-09T02:05:47.604Z,98774.59
2023-05-09T02:06:51.668Z,98775.72
2023-05-09T02:07:59.505Z,98779.72
2023-05-09T02:09:03.208Z,98777.28
2023-05-09T02:10:09.375Z,98780.16
2023-05-09T02:11:12.153Z,98788.63
2023-05-09T02:12:14.936Z,98788.13
2023-05-09T02:13:17.904Z,98779.53
2023-05-09T02:14:20.992Z,98774.06
2023-05-09T02:15:24.705Z,98780.44
2023-05-09T02:16:28.147Z,98775.94
2023-05-09T02:17:31.027Z,98781.37
2023-05-09T02:18:35.603Z,98779.34
2023-05-09T02:19:38.478Z,98767.84
2023-05-09T02:20:41.358Z,98777.09
2023-05-09T02:21:44.326Z,98774.34
2023-05-09T02:22:48.010Z,98772.16
2023-05-09T02:23:50.841Z,98779.06
2023-05-09T02:24:53.734Z,98777.94
2023-05-09T02:25:56.916Z,98783.34
2023-05-09T02:27:01.082Z,98778.34
2023-05-09T02:28:04.318Z,98774.87
2023-05-09T02:29:09.368Z,98774.34
2023-05-09T02:30:17.532Z,98771.63
2023-05-09T02:31:23.497Z,98777.06
2023-05-09T02:32:29.460Z,98778.22
2023-05-09T02:33:36.165Z,98773.31
2023-05-09T02:34:41.205Z,98779.06
2023-05-09T02:35:46.492Z,98772.94
2023-05-09T02:36:49.761Z,98774.16
2023-05-09T02:37:53.252Z,98772.34
2023-05-09T02:38:56.193Z,98771.75
2023-05-09T02:39:58.973Z,98772.56
2023-05-09T02:41:01.776Z,98772.97
2023-05-09T02:42:09.606Z,98769.75
2023-05-09T02:43:12.430Z,98768.81
2023-05-09T02:44:15.230Z,98771.22
2023-05-09T02:45:17.967Z,98758.22
2023-05-09T02:46:20.934Z,98763.81
2023-05-09T02:47:23.765Z,98773.06
2023-05-09T02:48:26.835Z,98767.47
2023-05-09T02:49:32.499Z,98764.47
2023-05-09T02:50:35.685Z,98763.84
2023-05-09T02:51:38.389Z,98769.31
2023-05-09T02:52:41.276Z,98763.00
2023-05-09T02:53:44.047Z,98758.59
2023-05-09T02:54:48.157Z,98765.91
2023-05-09T02:55:51.040Z,98759.22
2023-05-09T02:56:53.906Z,98758.91
2023-05-09T02:58:09.360Z,98756.72
2023-05-09T02:59:16.366Z,98754.91
2023-05-09T03:00:20.076Z,98758.03
2023-05-09T03:01:23.018Z,98759.72
2023-05-09T03:02:26.316Z,98753.22
2023-05-09T03:03:29.224Z,98747.56
2023-05-09T03:04:32.223Z,98751.22
2023-05-09T03:05:35.210Z,98746.91
2023-05-09T03:06:38.244Z,98753.22
2023-05-09T03:07:40.980Z,98750.16
2023-05-09T03:08:43.872Z,98750.16
2023-05-09T03:09:46.535Z,98743.97
2023-05-09T03:10:49.260Z,98747.69
2023-05-09T03:11:51.966Z,98744.69
2023-05-09T03:12:54.740Z,98741.69
2023-05-09T03:13:57.605Z,98734.38
2023-05-09T03:15:01.396Z,98742.69
2023-05-09T03:16:04.362Z,98736.91
2023-05-09T03:17:07.021Z,98735.00
2023-05-09T03:18:09.855Z,98739.25
2023-05-09T03:19:12.704Z,98733.25
2023-05-09T03:20:15.936Z,98728.34
2023-05-09T03:21:18.793Z,98735.66
2023-05-09T03:22:21.629Z,98727.66
2023-05-09T03:23:24.346Z,98725.66
2023-05-09T03:24:28.518Z,98731.66
2023-05-09T03:25:31.559Z,98724.41
2023-05-09T03:26:37.422Z,98737.50
2023-05-09T03:27:40.140Z,98738.13
2023-05-09T03:28:42.971Z,98740.53
2023-05-09T03:29:45.862Z,98737.63
2023-05-09T03:30:48.631Z,98739.44
2023-05-09T03:31:51.339Z,98739.59
2023-05-09T03:32:54.007Z,98737.75
2023-05-09T03:33:56.750Z,98736.13
2023-05-09T03:35:00.684Z,98745.06
2023-05-09T03:36:03.454Z,98743.81
2023-05-09T03:37:06.247Z,98746.56
2023-05-09T03:38:08.921Z,98747.28
2023-05-09T03:39:11.832Z,98744.69
2023-05-09T03:40:14.788Z,98743.63
2023-05-09T03:41:19.111Z,98750.22
2023-05-09T03:42:22.725Z,98752.72
2023-05-09T03:43:25.567Z,98752.00
2023-05-09T03:44:28.287Z,98755.69
2023-05-09T03:45:31.221Z,98757.47
2023-05-09T03:46:34.134Z,98752.72
2023-05-09T03:47:36.876Z,98756.00
2023-05-09T03:48:39.594Z,98758.00
2023-05-09T03:49:42.676Z,98758.97
2023-05-09T03:50:45.585Z,98759.94
2023-05-09T03:51:48.473Z,98753.56
2023-05-09T03:52:51.486Z,98763.34
2023-05-09T03:53:54.170Z,98760.28
2023-05-09T03:54:56.869Z,98761.59
2023-05-09T03:55:59.504Z,98761.25
2023-05-09T03:57:02.222Z,98751.59
2023-05-09T03:58:04.888Z,98755.41
2023-05-09T03:59:07.511Z,98755.94
2023-05-09T04:00:10.587Z,98759.25
2023-05-09T04:01:13.589Z,98756.69
2023-05-09T04:02:16.423Z,98760.22
2023-05-09T04:03:19.294Z,98756.00
2023-05-09T04:04:22.119Z,98760.78
2023-05-09T04:05:24.880Z,98752.94
2023-05-09T04:06:27.648Z,98756.78
2023-05-09T04:07:31.064Z,98753.16
2023-05-09T04:08:34.045Z,98755.19
2023-05-09T04:09:36.745Z,98752.66
2023-05-09T04:10:39.620Z,98749.94
2023-05-09T04:11:42.365Z,98752.44
2023-05-09T04:12:45.024Z,98754.84
2023-05-09T04:13:47.862Z,98754.84
2023-05-09T04:14:51.922Z,98756.13
2023-05-09T04:15:54.555Z,98760.16
2023-05-09T04:16:57.247Z,98750.50
2023-05-09T04:17:59.983Z,98757.44
2023-05-09T04:19:02.834Z,98757.97
2023-05-09T04:20:08.456Z,98761.09
2023-05-09T04:21:11.237Z,98752.72
2023-05-09T04:22:13.987Z,98755.47
2023-05-09T04:23:16.708Z,98759.25
2023-05-09T04:24:19.748Z,98758.53
2023-05-09T04:25:22.630Z,98759.09
2023-05-09T04:26:26.067Z,98759.66
2023-05-09T04:27:29.053Z,98762.38
2023-05-09T04:28:31.839Z,98763.28
2023-05-09T04:29:35.337Z,98759.47
2023-05-09T04:30:38.095Z,98753.28
2023-05-09T04:31:40.991Z,98755.12
2023-05-09T04:32:46.959Z,98752.78
2023-05-09T04:33:49.720Z,98765.53
2023-05-09T04:34:52.445Z,98746.03
2023-05-09T04:35:55.149Z,98753.16
2023-05-09T04:36:58.126Z,98753.72
2023-05-09T04:38:00.898Z,98758.44
2023-05-09T04:39:05.639Z,98752.63
2023-05-09T04:40:09.571Z,98760.28
2023-05-09T04:41:12.364Z,98765.53
2023-05-09T04:42:15.384Z,98761.19
2023-05-09T04:43:18.107Z,98766.47
2023-05-09T04:44:21.793Z,98757.72
2023-05-09T04:45:24.491Z,98761.19
2023-05-09T04:46:27.353Z,98762.47
2023-05-09T04:47:30.192Z,98760.81
2023-05-09T04:48:32.901Z,98757.19
2023-05-09T04:49:35.590Z,98758.84
2023-05-09T04:50:38.243Z,98755.91
2023-05-09T04:51:40.997Z,98761.94
2023-05-09T04:52:43.668Z,98761.00
2023-05-09T04:53:46.391Z,98764.47
2023-05-09T04:54:49.351Z,98767.41
2023-05-09T04:55:52.134Z,98765.53
2023-05-09T04:57:03.093Z,98767.91
2023-05-09T04:58:10.080Z,98769.53
2023-05-09T04:59:13.106Z,98766.44
2023-05-09T05:00:18.077Z,98754.75
2023-05-09T05:01:21.092Z,98760.78
2023-05-09T05:02:25.425Z,98761.69
2023-05-09T05:03:28.330Z,98754.53
2023-05-09T05:04:32.042Z,98759.47
2023-05-09T05:05:37.118Z,98766.22
2023-05-09T05:06:40.581Z,98766.22
2023-05-09T05:07:43.476Z,98764.38
2023-05-09T05:08:46.314Z,98767.81
2023-05-09T05:09:49.153Z,98766.37
2023-05-09T05:10:51.921Z,98768.16
2023-05-09T05:12:01.749Z,98775.63
2023-05-09T05:13:05.345Z,98763.03
2023-05-09T05:14:08.176Z,98769.62
2023-05-09T05:15:11.661Z,98772.69
2023-05-09T05:16:14.618Z,98768.13
2023-05-09T05:17:18.478Z,98771.25
2023-05-09T05:18:21.405Z,98773.22
2023-05-09T05:19:24.212Z,98766.47
2023-05-09T05:20:27.061Z,98769.44
2023-05-09T05:21:30.042Z,98767.75
2023-05-09T05:22:32.976Z,98767.00
2023-05-09T05:23:35.796Z,98773.94
2023-05-09T05:24:38.560Z,98765.34
2023-05-09T05:25:41.155Z,98769.53
2023-05-09T05:26:43.912Z,98767.16
2023-05-09T05:27:46.611Z,98766.44
2023-05-09T05:28:49.467Z,98774.28
2023-05-09T05:29:52.257Z,98768.03
2023-05-09T05:30:55.048Z,98766.59
2023-05-09T05:31:57.970Z,98773.16
2023-05-09T05:33:00.895Z,98776.22
2023-05-09T05:34:03.782Z,98764.72
2023-05-09T05:35:06.905Z,98768.34
2023-05-09T05:36:09.878Z,98771.66
2023-05-09T05:37:12.569Z,98761.03
2023-05-09T05:38:15.436Z,98765.97
2023-05-09T05:39:18.089Z,98774.53
2023-05-09T05:40:21.478Z,98760.63
2023-05-09T05:41:24.348Z,98754.56
2023-05-09T05:42:27.049Z,98752.75
2023-05-09T05:43:30.505Z,98755.50
2023-05-09T05:44:33.272Z,98763.56
2023-05-09T05:45:36.164Z,98769.94
2023-05-09T05:46:38.923Z,98761.31
2023-05-09T05:47:41.647Z,98763.50
2023-05-09T05:48:44.805Z,98755.44
2023-05-09T05:49:47.503Z,98752.38
2023-05-09T05:50:50.331Z,98762.38
2023-05-09T05:51:53.105Z,98770.59
2023-05-09T05:52:55.810Z,98753.03
2023-05-09T05:53:58.611Z,98773.13
2023-05-09T05:55:01.314Z,98765.66
2023-05-09T05:56:04.146Z,98764.69
2023-05-09T05:57:08.401Z,98756.41
2023-05-09T05:58:11.210Z,98765.94
2023-05-09T05:59:14.001Z,98755.50
2023-05-09T06:00:17.570Z,98756.06
2023-05-09T06:01:20.393Z,98751.66
2023-05-09T06:02:23.286Z,98757.78
2023-05-09T06:03:26.245Z,98751.78
2023-05-09T06:04:29.212Z,98763.06
2023-05-09T06:05:32.189Z,98759.94
2023-05-09T06:06:35.045Z,98754.78
2023-05-09T06:07:37.834Z,98761.72
2023-05-09T06:08:40.552Z,98765.91
2023-05-09T06:09:43.253Z,98766.81
2023-05-09T06:10:46.117Z,98766.25
2023-05-09T06:11:48.937Z,98773.34
2023-05-09T06:12:51.646Z,98771.91
2023-05-09T06:13:54.299Z,98758.03
2023-05-09T06:14:57.031Z,98766.81
2023-05-09T06:16:07.711Z,98765.13
2023-05-09T06:17:18.973Z,98770.22
2023-05-09T06:18:22.041Z,98763.94
2023-05-09T06:19:24.849Z,98763.22
2023-05-09T06:20:27.630Z,98770.81
2023-05-09T06:21:30.734Z,98777.53
2023-05-09T06:22:33.473Z,98777.38
2023-05-09T06:23:38.018Z,98762.97
2023-05-09T06:24:43.111Z,98768.66
2023-05-09T06:25:45.866Z,98762.09
2023-05-09T06:26:50.462Z,98771.84
2023-05-09T06:27:53.134Z,98757.00
2023-05-09T06:28:56.261Z,98762.16
2023-05-09T06:29:58.882Z,98764.13
2023-05-09T06:31:02.000Z,98757.50
2023-05-09T06:32:05.052Z,98766.44
2023-05-09T06:33:07.818Z,98760.69
2023-05-09T06:34:10.679Z,98762.28
2023-05-09T06:35:13.655Z,98762.47
2023-05-09T06:36:16.502Z,98757.28
2023-05-09T06:37:19.288Z,98753.59
2023-05-09T06:38:22.149Z,98763.63
2023-05-09T06:39:24.797Z,98758.31
2023-05-09T06:40:27.658Z,98762.97
2023-05-09T06:41:30.456Z,98758.87
2023-05-09T06:42:33.933Z,98764.28
2023-05-09T06:43:36.718Z,98758.53
2023-05-09T06:44:39.453Z,98756.34
2023-05-09T06:45:42.230Z,98761.59
2023-05-09T06:46:45.106Z,98759.41
2023-05-09T06:47:48.033Z,98761.91
2023-05-09T06:48:51.068Z,98760.38
2023-05-09T06:49:54.077Z,98767.94
2023-05-09T06:50:56.857Z,98764.06
2023-05-09T06:51:59.578Z,98764.63
2023-05-09T06:53:02.168Z,98765.53
2023-05-09T06:54:04.930Z,98776.66
2023-05-09T06:55:08.898Z,98762.50
2023-05-09T06:56:12.141Z,98761.38
2023-05-09T06:57:14.901Z,98762.97
2023-05-09T06:58:17.620Z,98762.25
2023-05-09T06:59:20.650Z,98762.47
2023-05-09T07:00:23.582Z,98758.41
2023-05-09T07:01:26.456Z,98756.44
2023-05-09T07:02:29.286Z,98761.09
2023-05-09T07:03:32.019Z,98765.34
2023-05-09T07:04:34.650Z,98754.22
2023-05-09T07:05:37.309Z,98755.06
2023-05-09T07:06:40.049Z,98765.09
2023-05-09T07:07:42.787Z,98754.81
2023-05-09T07:08:46.114Z,98758.91
2023-05-09T07:09:50.835Z,98759.94
2023-05-09T07:10:56.032Z,98771.09
2023-05-09T07:12:01.756Z,98755.03
2023-05-09T07:13:05.138Z,98761.84
2023-05-09T07:14:08.008Z,98764.00
2023-05-09T07:15:11.448Z,98762.28
2023-05-09T07:16:14.238Z,98769.84
2023-05-09T07:17:23.481Z,98770.72
2023-05-09T07:18:26.975Z,98759.28
2023-05-09T07:19:29.868Z,98761.94
2023-05-09T07:20:32.693Z,98764.16
2023-05-09T07:21:35.670Z,98758.50
2023-05-09T07:22:38.529Z,98760.97
2023-05-09T07:23:41.151Z,98757.94
2023-05-09T07:24:46.750Z,98761.72
2023-05-09T07:25:49.529Z,98753.44
2023-05-09T07:26:52.460Z,98760.13
2023-05-09T07:27:55.084Z,98755.03
2023-05-09T07:28:57.987Z,98750.13
2023-05-09T07:30:00.923Z,98752.16
2023-05-09T07:31:03.740Z,98744.00
2023-05-09T07:32:06.549Z,98754.47
2023-05-09T07:33:09.348Z,98748.06
2023-05-09T07:34:12.153Z,98747.78
2023-05-09T07:35:15.206Z,98749.94
2023-05-09T07:36:18.192Z,98759.94
2023-05-09T07:37:21.087Z,98752.84
2023-05-09T07:38:23.784Z,98750.37
2023-05-09T07:39:26.582Z,98752.41
2023-05-09T07:40:29.230Z,98753.69
2023-05-09T07:41:32.133Z,98747.16
2023-05-09T07:42:34.900Z,98748.47
2023-05-09T07:43:37.646Z,98739.75
2023-05-09T07:44:40.435Z,98752.94
2023-05-09T07:45:43.872Z,98740.31
2023-05-09T07:46:46.632Z,98735.94
2023-05-09T07:47:49.539Z,98741.28
2023-05-09T07:48:52.311Z,98739.91
2023-05-09T07:49:55.092Z,98734.31
2023-05-09T07:50:58.536Z,98741.00
2023-05-09T07:52:01.557Z,98741.84
2023-05-09T07:53:04.300Z,98738.56
2023-05-09T07:54:07.366Z,98733.09
2023-05-09T07:55:10.203Z,98742.13
2023-05-09T07:56:13.614Z,98732.06
2023-05-09T07:57:16.851Z,98737.72
2023-05-09T07:58:19.547Z,98732.38
2023-05-09T07:59:22.290Z,98733.56
2023-05-09T08:00:25.126Z,98734.69
2023-05-09T08:01:27.895Z,98730.28
2023-05-09T08:02:30.647Z,98734.75
2023-05-09T08:03:33.602Z,98724.09
2023-05-09T08:04:38.620Z,98720.87
2023-05-09T08:05:41.473Z,98737.50
2023-05-09T08:06:44.212Z,98731.25
2023-05-09T08:07:46.984Z,98724.16
2023-05-09T08:08:49.825Z,98717.91
2023-05-09T08:09:52.793Z,98721.06
2023-05-09T08:10:56.442Z,98730.22
2023-05-09T08:11:59.240Z,98723.34
2023-05-09T08:13:02.223Z,98728.97
2023-05-09T08:14:05.178Z,98722.03
2023-05-09T08:15:08.273Z,98724.72
2023-05-09T08:16:10.998Z,98728.47
2023-05-09T08:17:13.816Z,98722.44
2023-05-09T08:18:16.741Z,98716.94
2023-05-09T08:19:21.418Z,98725.50
2023-05-09T08:20:24.547Z,98726.38
2023-05-09T08:21:27.391Z,98719.84
2023-05-09T08:22:30.187Z,98720.34
2023-05-09T08:23:33.222Z,98717.72
2023-05-09T08:24:35.931Z,98725.16
2023-05-09T08:25:38.769Z,98713.97
2023-05-09T08:26:41.322Z,98718.69
2023-05-09T08:27:44.202Z,98722.53
2023-05-09T08:28:47.019Z,98719.28
2023-05-09T08:29:49.717Z,98724.12
2023-05-09T08:30:52.502Z,98724.12
2023-05-09T08:31:55.333Z,98722.28
2023-05-09T08:32:58.194Z,98720.00
2023-05-09T08:34:01.327Z,98716.53
2023-05-09T08:35:04.341Z,98722.06
2023-05-09T08:36:07.377Z,98720.63
2023-05-09T08:37:11.030Z,98727.84
2023-05-09T08:38:14.601Z,98717.25
2023-05-09T08:39:17.421Z,98725.06
2023-05-09T08:40:20.289Z,98719.03
2023-05-09T08:41:28.327Z,98720.37
2023-05-09T08:42:32.427Z,98722.66
2023-05-09T08:43:36.412Z,98715.06
2023-05-09T08:44:39.246Z,98716.38
2023-05-09T08:45:54.784Z,98721.91
2023-05-09T08:47:01.197Z,98719.03
2023-05-09T08:48:04.238Z,98722.63
2023-05-09T08:49:08.612Z,98715.81
2023-05-09T08:50:15.378Z,98712.91
2023-05-09T08:51:18.750Z,98713.37
2023-05-09T08:52:22.052Z,98714.34
2023-05-09T08:53:25.038Z,98719.78
2023-05-09T08:54:28.865Z,98721.09
2023-05-09T08:55:32.778Z,98719.28
2023-05-09T08:56:39.106Z,98720.34
2023-05-09T08:57:41.742Z,98713.31
2023-05-09T08:58:44.478Z,98714.00
2023-05-09T08:59:49.892Z,98719.16
2023-05-09T09:00:53.772Z,98723.38
2023-05-09T09:01:57.047Z,98715.75
2023-05-09T09:03:02.781Z,98725.25
2023-05-09T09:04:09.189Z,98710.28
2023-05-09T09:05:23.982Z,98715.34
2023-05-09T09:06:36.932Z,98704.34
2023-05-09T09:07:41.800Z,98700.19
2023-05-09T09:08:46.315Z,98705.09
2023-05-09T09:09:50.419Z,98706.69
2023-05-09T09:10:53.815Z,98703.31
2023-05-09T09:11:57.418Z,98708.38
2023-05-09T09:13:01.770Z,98707.94
2023-05-09T09:14:14.039Z,98709.72
2023-05-09T09:15:20.376Z,98710.63
2023-05-09T09:16:25.465Z,98699.94
2023-05-09T09:17:30.792Z,98701.25
2023-05-09T09:18:35.572Z,98697.37
2023-05-09T09:19:41.326Z,98699.94
2023-05-09T09:20:52.464Z,98698.09
2023-05-09T09:21:59.290Z,98696.53
2023-05-09T09:23:04.937Z,98701.03
2023-05-09T09:24:08.234Z,98685.75
2023-05-09T09:25:11.430Z,98707.41
2023-05-09T09:26:14.533Z,98702.50
2023-05-09T09:27:17.242Z,98707.13
2023-05-09T09:28:21.040Z,98699.50
2023-05-09T09:29:24.702Z,98700.03
2023-05-09T09:30:27.735Z,98701.34
2023-05-09T09:31:33.415Z,98697.81
2023-05-09T09:32:36.827Z,98693.53
2023-05-09T09:33:39.507Z,98709.81
2023-05-09T09:34:42.409Z,98704.97
2023-05-09T09:35:45.670Z,98699.41
2023-05-09T09:36:48.737Z,98700.63
2023-05-09T09:38:00.155Z,98696.91
2023-05-09T09:39:05.563Z,98712.09
2023-05-09T09:40:10.158Z,98707.84
2023-05-09T09:41:13.303Z,98717.28
2023-05-09T09:42:16.136Z,98713.94
2023-05-09T09:43:19.167Z,98704.13
2023-05-09T09:44:23.676Z,98701.03
2023-05-09T09:45:28.203Z,98700.44
2023-05-09T09:46:40.959Z,98702.09
2023-05-09T09:47:45.336Z,98698.25
2023-05-09T09:48:52.965Z,98691.38
2023-05-09T09:49:55.799Z,98699.69
2023-05-09T09:51:04.500Z,98689.44
2023-05-09T09:52:07.250Z,98700.03
2023-05-09T09:53:10.043Z,98696.53
2023-05-09T09:54:13.673Z,98684.69
2023-05-09T09:55:17.138Z,98684.59
2023-05-09T09:56:21.949Z,98684.00
2023-05-09T09:57:38.626Z,98676.91
2023-05-09T09:58:41.476Z,98686.56
2023-05-09T09:59:58.970Z,98681.72
2023-05-09T10:01:07.415Z,98682.03
2023-05-09T10:02:12.636Z,98675.16
2023-05-09T10:03:18.616Z,98677.28
2023-05-09T10:04:21.621Z,98687.25
2023-05-09T10:05:28.818Z,98687.41
2023-05-09T10:06:32.075Z,98686.91
2023-05-09T10:07:38.704Z,98686.84
2023-05-09T10:08:43.143Z,98686.31
2023-05-09T10:09:46.658Z,98684.78
2023-05-09T10:10:49.406Z,98670.00
2023-05-09T10:11:53.665Z,98669.97
2023-05-09T10:13:03.596Z,98666.78
2023-05-09T10:14:06.392Z,98669.81
2023-05-09T10:15:10.798Z,98671.78
2023-05-09T10:16:14.671Z,98676.78
2023-05-09T10:17:18.565Z,98673.91
2023-05-09T10:18:31.350Z,98674.87
2023-05-09T10:19:38.451Z,98678.59
2023-05-09T10:20:44.012Z,98679.97
2023-05-09T10:21:53.210Z,98675.37
2023-05-09T10:22:58.293Z,98674.56
2023-05-09T10:24:03.869Z,98666.47
2023-05-09T10:25:14.946Z,98680.69
2023-05-09T10:26:29.271Z,98682.03
2023-05-09T10:27:35.769Z,98676.97
2023-05-09T10:28:41.273Z,98676.69
2023-05-09T10:29:52.432Z,98670.41
2023-05-09T10:31:01.968Z,98680.59
2023-05-09T10:32:16.199Z,98672.16
2023-05-09T10:33:24.798Z,98665.69
2023-05-09T10:34:31.137Z,98660.44
2023-05-09T10:35:37.406Z,98652.28
2023-05-09T10:36:40.243Z,98649.00
2023-05-09T10:37:45.270Z,98651.63
2023-05-09T10:38:55.290Z,98665.44
2023-05-09T10:39:58.213Z,98655.16
2023-05-09T10:41:01.185Z,98664.19
2023-05-09T10:42:05.583Z,98669.63
2023-05-09T10:43:08.463Z,98655.47
2023-05-09T10:44:11.638Z,98662.72
2023-05-09T10:45:15.097Z,98652.87
2023-05-09T10:46:18.715Z,98656.75
2023-05-09T10:47:22.500Z,98648.03
2023-05-09T10:48:26.016Z,98658.81
2023-05-09T10:49:29.351Z,98660.72
2023-05-09T10:50:32.065Z,98664.81
2023-05-09T10:51:35.029Z,98656.31
2023-05-09T10:53:17.147Z,98659.63
2023-05-09T10:54:32.830Z,98653.19
2023-05-09T10:56:00.551Z,98665.00
2023-05-09T10:57:03.907Z,98654.66
2023-05-09T10:58:29.397Z,98669.16
2023-05-09T10:59:37.934Z,98666.47
2023-05-09T11:00:44.160Z,98665.91
2023-05-09T11:01:47.029Z,98666.16
2023-05-09T11:03:08.404Z,98668.94
2023-05-09T11:04:17.052Z,98648.47
2023-05-09T11:05:20.533Z,98659.09
2023-05-09T11:06:44.011Z,98649.22
2023-05-09T11:07:46.860Z,98654.97
2023-05-09T11:08:49.531Z,98655.41
2023-05-09T11:10:06.989Z,98652.75
2023-05-09T11:11:26.119Z,98655.31
2023-05-09T11:12:28.894Z,98656.19
2023-05-09T11:13:33.596Z,98648.78
2023-05-09T11:14:46.378Z,98642.78
2023-05-09T11:16:05.242Z,98640.69
2023-05-09T11:17:11.369Z,98641.53
2023-05-09T11:18:14.140Z,98646.16
2023-05-09T11:19:37.176Z,98642.25
2023-05-09T11:20:44.725Z,98641.34
2023-05-09T11:22:02.120Z,98645.81
2023-05-09T11:23:06.287Z,98629.56
2023-05-09T11:24:19.264Z,98633.31
2023-05-09T11:25:28.696Z,98635.59
2023-05-09T11:26:31.782Z,98636.31
2023-05-09T11:27:58.324Z,98639.19
2023-05-09T11:29:02.886Z,98634.84
2023-05-09T11:30:07.431Z,98634.66
2023-05-09T11:31:12.261Z,98622.66
2023-05-09T11:32:16.093Z,98635.41
2023-05-09T11:33:28.620Z,98629.37
2023-05-09T11:34:31.520Z,98620.50
2023-05-09T11:35:38.831Z,98612.97
2023-05-09T11:36:47.877Z,98637.69
2023-05-09T11:37:53.098Z,98640.19
2023-05-09T11:39:08.086Z,98635.69
2023-05-09T11:40:13.484Z,98634.91
2023-05-09T11:41:16.802Z,98633.09
2023-05-09T11:42:19.882Z,98636.19
2023-05-09T11:43:22.797Z,98630.44
2023-05-09T11:44:28.096Z,98619.13
2023-05-09T11:45:33.197Z,98629.00
2023-05-09T11:46:37.394Z,98627.13
2023-05-09T11:47:41.168Z,98619.47
2023-05-09T11:48:44.060Z,98615.72
2023-05-09T11:49:46.844Z,98617.38
2023-05-09T11:50:49.800Z,98611.97
2023-05-09T11:51:52.432Z,98617.62
2023-05-09T11:52:55.204Z,98615.00
2023-05-09T11:53:57.868Z,98617.00
2023-05-09T11:55:01.568Z,98619.06
2023-05-09T11:56:05.342Z,98624.50
2023-05-09T11:57:08.651Z,98630.91
2023-05-09T11:58:11.446Z,98616.03
2023-05-09T11:59:16.199Z,98621.87
2023-05-09T12:00:24.289Z,98623.88
2023-05-09T12:01:27.175Z,98618.34
2023-05-09T12:02:30.530Z,98614.66
2023-05-09T12:03:33.700Z,98613.84
2023-05-09T12:04:37.002Z,98607.88
2023-05-09T12:05:40.008Z,98593.28
2023-05-09T12:06:48.804Z,98596.88
2023-05-09T12:07:52.773Z,98597.78
2023-05-09T12:08:57.551Z,98599.81
2023-05-09T12:10:02.944Z,98606.47
2023-05-09T12:11:09.795Z,98591.47
2023-05-09T12:12:13.887Z,98596.06
2023-05-09T12:13:16.709Z,98601.38
2023-05-09T12:14:29.710Z,98602.69
2023-05-09T12:15:38.996Z,98598.84
2023-05-09T12:16:48.013Z,98602.41
2023-05-09T12:18:04.906Z,98595.72
2023-05-09T12:19:11.829Z,98602.16
2023-05-09T12:20:14.825Z,98591.87
2023-05-09T12:21:21.974Z,98592.31
2023-05-09T12:22:24.876Z,98596.72
2023-05-09T12:23:27.546Z,98600.03
2023-05-09T12:24:31.042Z,98597.47
2023-05-09T12:25:33.882Z,98599.59
2023-05-09T12:26:36.747Z,98587.53
2023-05-09T12:27:41.472Z,98591.50
2023-05-09T12:28:44.336Z,98592.22
2023-05-09T12:29:48.751Z,98589.94
2023-05-09T12:30:52.678Z,98586.56
2023-05-09T12:31:55.806Z,98579.72
2023-05-09T12:32:58.882Z,98578.28
2023-05-09T12:34:01.858Z,98579.22
2023-05-09T12:35:05.129Z,98579.75
2023-05-09T12:36:11.429Z,98579.22
2023-05-09T12:37:19.021Z,98579.28
2023-05-09T12:38:22.803Z,98565.53
2023-05-09T12:39:26.889Z,98575.19
2023-05-09T12:40:29.576Z,98583.81